Time;durP1;ratioP1;P1;durP2;ratioP2;P2;SDS_P1;SDS_P2;PMS_P1;PMS_P2;Temp;Humidity;BMP_temperature;BMP_pressure;BME280_temperature;BME280_humidity;BME280_pressure;Samples;Min_cycle;Max_cycle;Signal;HPM_P1;HPM_P2
2021/10/19 00:01:22;;;;;;;70.13;35.22;;;;;;;12.26;56.23;96234.09;5027445;28;20041;-71
2021/10/19 00:03:48;;;;;;;65.35;33.70;;;;;;;12.35;55.47;96226.25;5028545;28;20484;-72
2021/10/19 00:06:14;;;;;;;77.93;37.63;;;;;;;12.40;55.19;96221.66;5028816;28;20124;-70
2021/10/19 00:08:39;;;;;;;91.05;39.83;;;;;;;12.46;54.88;96220.50;5027848;28;20026;-72
2021/10/19 00:11:05;;;;;;;88.13;37.97;;;;;;;12.49;54.55;96217.25;5008756;28;20042;-72
2021/10/19 00:13:31;;;;;;;88.13;37.60;;;;;;;12.47;54.45;96214.06;5008674;28;20053;-72
2021/10/19 00:15:57;;;;;;;72.55;33.28;;;;;;;12.45;54.10;96213.56;5022734;28;20036;-72
2021/10/19 00:18:22;;;;;;;82.35;38.90;;;;;;;12.49;53.83;96211.13;5028558;28;20057;-71
2021/10/19 00:20:48;;;;;;;88.97;40.75;;;;;;;12.46;54.07;96201.03;5027811;28;20063;-71
2021/10/19 00:23:13;;;;;;;75.03;36.65;;;;;;;12.53;54.04;96196.09;5030186;28;20360;-72
2021/10/19 00:25:38;;;;;;;52.83;29.17;;;;;;;12.54;54.00;96187.03;5010401;28;20518;-72
2021/10/19 00:28:04;;;;;;;60.13;31.02;;;;;;;12.63;53.99;96195.16;5016730;28;20033;-72
2021/10/19 00:30:31;;;;;;;64.40;31.95;;;;;;;12.67;54.19;96196.16;5015814;28;20120;-72
2021/10/19 00:32:57;;;;;;;48.28;26.63;;;;;;;12.69;53.87;96196.66;5006912;28;20029;-71
2021/10/19 00:35:23;;;;;;;39.55;23.35;;;;;;;12.69;53.98;96173.44;5010453;28;20034;-71
2021/10/19 00:37:48;;;;;;;41.38;24.98;;;;;;;12.74;54.10;96175.22;4991445;28;20047;-72
2021/10/19 00:40:14;;;;;;;27.42;18.27;;;;;;;12.75;54.10;96172.28;5000010;28;20049;-72
2021/10/19 00:42:39;;;;;;;33.80;20.42;;;;;;;12.79;54.21;96171.66;5000544;28;20038;-72
2021/10/19 00:45:06;;;;;;;20.50;15.73;;;;;;;12.83;53.90;96170.81;4988580;28;20074;-71
2021/10/19 00:47:32;;;;;;;21.55;14.90;;;;;;;12.84;53.92;96167.03;4989443;28;20367;-71
2021/10/19 00:49:57;;;;;;;18.17;13.55;;;;;;;12.88;53.73;96164.59;4988354;28;20104;-72
2021/10/19 00:52:23;;;;;;;23.83;16.63;;;;;;;12.91;53.74;96164.81;4988709;28;20038;-72
2021/10/19 00:54:50;;;;;;;17.23;13.52;;;;;;;12.98;53.65;96175.88;4987977;28;20046;-72
2021/10/19 00:57:16;;;;;;;15.95;13.65;;;;;;;12.97;53.91;96179.66;4988252;28;20531;-72
2021/10/19 00:59:47;;;;;;;18.30;13.52;;;;;;;12.97;53.77;96179.66;4988515;28;20030;-71
2021/10/19 01:02:13;;;;;;;18.67;12.95;;;;;;;13.00;53.71;96181.75;5008347;28;20411;-72
2021/10/19 01:04:40;;;;;;;14.40;11.55;;;;;;;12.97;54.11;96185.00;4991932;28;20077;-71
2021/10/19 01:07:06;;;;;;;11.85;10.70;;;;;;;12.80;53.91;96167.94;4999728;28;20581;-72
2021/10/19 01:09:31;;;;;;;10.70;9.38;;;;;;;12.79;54.25;96169.00;5007475;28;20054;-71
2021/10/19 01:11:56;;;;;;;11.25;10.13;;;;;;;12.81;54.42;96170.31;5006520;28;20022;-71
2021/10/19 01:14:22;;;;;;;12.52;11.15;;;;;;;12.88;54.34;96172.59;5024533;28;20029;-72
2021/10/19 01:16:47;;;;;;;11.75;10.55;;;;;;;12.83;54.29;96164.66;5008043;28;20168;-72
2021/10/19 01:19:21;;;;;;;14.07;12.32;;;;;;;12.89;53.86;96176.84;4994036;28;20053;-71
2021/10/19 01:21:56;;;;;;;10.82;9.75;;;;;;;12.88;53.96;96173.38;4988226;28;20065;-72
2021/10/19 01:24:22;;;;;;;15.13;12.00;;;;;;;12.89;53.90;96174.97;4987816;28;20038;-71
2021/10/19 01:26:47;;;;;;;9.45;8.48;;;;;;;12.78;54.12;96162.09;4988045;28;20520;-72
2021/10/19 01:29:14;;;;;;;10.20;8.85;;;;;;;12.78;53.89;96170.09;4989394;28;20073;-72
2021/10/19 01:31:44;;;;;;;9.35;8.43;;;;;;;12.73;53.99;96168.28;5003504;28;20035;-72
2021/10/19 01:34:10;;;;;;;11.05;8.27;;;;;;;12.71;54.14;96171.28;5003038;28;20039;-72
2021/10/19 01:36:35;;;;;;;11.55;9.48;;;;;;;12.65;54.30;96160.97;4988219;28;20038;-72
2021/10/19 01:39:00;;;;;;;10.43;9.43;;;;;;;12.65;54.37;96163.63;4987596;28;20030;-71
2021/10/19 01:41:26;;;;;;;11.10;10.02;;;;;;;12.61;54.37;96155.41;4990327;28;20137;-72
2021/10/19 01:43:51;;;;;;;11.05;9.95;;;;;;;12.56;54.32;96157.38;4991947;28;20038;-71
2021/10/19 01:46:16;;;;;;;8.93;8.02;;;;;;;12.52;54.26;96169.72;4992136;28;20129;-72
2021/10/19 01:48:42;;;;;;;9.45;8.55;;;;;;;12.57;54.44;96175.75;4991677;28;20031;-72
2021/10/19 01:51:08;;;;;;;8.73;7.82;;;;;;;12.53;54.45;96173.97;4992290;28;20039;-72
2021/10/19 01:53:33;;;;;;;12.40;7.68;;;;;;;12.51;54.61;96160.13;4993794;28;20427;-72
2021/10/19 01:55:58;;;;;;;7.88;7.13;;;;;;;12.58;54.98;96165.88;4991336;28;20398;-72
2021/10/19 01:58:24;;;;;;;7.80;7.10;;;;;;;12.51;54.85;96162.78;5005185;28;20060;-72
2021/10/19 02:00:53;;;;;;;10.60;8.13;;;;;;;12.45;54.77;96146.06;5010938;28;20439;-72
2021/10/19 02:03:18;;;;;;;8.57;7.68;;;;;;;12.54;54.83;96155.00;5010980;28;20033;-73
2021/10/19 02:05:44;;;;;;;7.32;6.63;;;;;;;12.56;54.65;96160.84;5011284;28;20040;-72
2021/10/19 02:08:09;;;;;;;8.10;7.28;;;;;;;12.58;54.26;96165.88;5012023;28;20084;-72
2021/10/19 02:10:36;;;;;;;9.32;7.70;;;;;;;12.57;54.23;96157.06;5010075;28;20129;-72
2021/10/19 02:13:03;;;;;;;11.50;8.05;;;;;;;12.49;54.31;96150.53;5010895;28;20068;-73
2021/10/19 02:15:28;;;;;;;9.05;8.15;;;;;;;12.54;54.31;96154.19;5003616;28;20373;-72
2021/10/19 02:17:55;;;;;;;8.63;7.70;;;;;;;12.49;54.13;96147.88;4993177;28;20022;-73
2021/10/19 02:20:22;;;;;;;12.38;8.10;;;;;;;12.46;54.52;96142.31;5012279;28;20033;-72
2021/10/19 02:22:48;;;;;;;7.90;7.10;;;;;;;12.52;54.32;96156.38;4993895;28;20074;-72
2021/10/19 02:25:13;;;;;;;8.20;7.22;;;;;;;12.41;54.42;96150.41;4991061;28;20053;-73
2021/10/19 02:27:38;;;;;;;11.75;8.07;;;;;;;12.39;54.56;96141.91;4989909;28;20125;-72
2021/10/19 02:30:05;;;;;;;7.28;6.57;;;;;;;12.37;54.64;96134.16;4990714;28;20487;-72
2021/10/19 02:32:30;;;;;;;7.00;6.30;;;;;;;12.40;54.51;96135.47;4993138;28;20409;-72
2021/10/19 02:34:56;;;;;;;7.07;6.18;;;;;;;12.36;54.64;96129.91;5008820;28;20045;-72
2021/10/19 02:37:21;;;;;;;11.05;7.00;;;;;;;12.39;54.30;96133.91;4997076;28;20030;-72
2021/10/19 02:39:46;;;;;;;8.23;7.20;;;;;;;12.37;54.24;96128.84;4989282;28;20066;-74
2021/10/19 02:42:12;;;;;;;9.70;7.47;;;;;;;12.37;54.54;96125.38;4989229;28;20605;-72
2021/10/19 02:44:37;;;;;;;8.48;7.10;;;;;;;12.36;54.64;96124.59;4992702;28;20109;-72
2021/10/19 02:47:03;;;;;;;6.95;6.25;;;;;;;12.19;54.40;96105.66;4991144;28;20539;-72
2021/10/19 02:49:28;;;;;;;7.20;6.55;;;;;;;12.33;54.97;96113.69;4990549;28;20077;-72
2021/10/19 02:51:54;;;;;;;6.28;5.68;;;;;;;12.38;54.58;96125.06;5000349;28;20081;-72
2021/10/19 02:54:19;;;;;;;8.88;6.10;;;;;;;12.35;54.95;96101.66;5004700;28;20033;-71
2021/10/19 02:56:44;;;;;;;6.72;5.78;;;;;;;12.42;54.43;96112.75;4990572;28;20491;-72
2021/10/19 02:59:10;;;;;;;5.85;5.25;;;;;;;12.37;54.82;96098.69;4991738;28;20022;-72
2021/10/19 03:01:35;;;;;;;6.45;5.85;;;;;;;12.39;54.54;96105.34;5008711;28;20064;-71
2021/10/19 03:04:00;;;;;;;7.13;6.43;;;;;;;12.41;54.68;96102.38;4999231;28;20042;-72
2021/10/19 03:06:26;;;;;;;6.10;5.35;;;;;;;12.37;54.44;96096.03;4990551;28;20030;-72
2021/10/19 03:08:51;;;;;;;7.13;6.43;;;;;;;12.36;54.51;96091.78;4991249;28;20543;-72
2021/10/19 03:11:16;;;;;;;7.28;5.95;;;;;;;12.41;54.29;96111.16;5011525;28;20431;-72
2021/10/19 03:13:42;;;;;;;5.72;5.10;;;;;;;12.38;54.46;96109.06;5009394;28;20064;-72
2021/10/19 03:16:07;;;;;;;6.38;5.78;;;;;;;12.37;54.43;96115.50;5027967;28;20451;-73
2021/10/19 03:18:33;;;;;;;7.07;5.50;;;;;;;12.34;54.58;96108.09;5003079;28;20077;-73
2021/10/19 03:20:58;;;;;;;6.45;5.85;;;;;;;12.39;54.68;96113.34;4989731;28;20175;-73
2021/10/19 03:23:23;;;;;;;6.40;5.85;;;;;;;12.52;54.17;96127.00;4991824;28;20031;-70
2021/10/19 03:25:49;;;;;;;6.70;6.15;;;;;;;12.56;54.17;96128.03;4989951;28;20046;-71
2021/10/19 03:28:14;;;;;;;7.15;5.18;;;;;;;12.61;53.96;96123.38;5002004;28;20041;-70
2021/10/19 03:30:40;;;;;;;7.50;6.68;;;;;;;12.70;54.06;96131.53;5011834;28;20069;-70
2021/10/19 03:33:06;;;;;;;7.63;5.80;;;;;;;12.70;53.86;96115.50;5009248;28;20044;-70
2021/10/19 03:35:31;;;;;;;6.80;6.20;;;;;;;12.72;53.52;96126.69;5011315;28;20472;-72
2021/10/19 03:37:57;;;;;;;5.85;5.25;;;;;;;12.67;53.68;96124.88;5009460;28;20061;-72
2021/10/19 03:40:23;;;;;;;7.43;6.55;;;;;;;12.66;53.58;96135.84;5008592;28;20046;-72
2021/10/19 03:42:49;;;;;;;7.70;6.72;;;;;;;12.64;53.57;96130.00;5000009;28;20442;-70
2021/10/19 03:45:15;;;;;;;6.25;5.65;;;;;;;12.65;54.12;96132.41;4989794;28;20054;-73
2021/10/19 03:47:41;;;;;;;6.97;5.35;;;;;;;12.63;53.80;96133.75;4991647;28;20440;-71
2021/10/19 03:50:08;;;;;;;6.30;5.32;;;;;;;12.56;53.69;96130.69;5028185;28;20069;-71
2021/10/19 03:52:33;;;;;;;5.32;4.82;;;;;;;12.60;53.89;96129.81;5028733;28;20037;-72
2021/10/19 03:54:59;;;;;;;6.22;5.70;;;;;;;12.60;53.45;96119.13;5023959;28;20033;-71
2021/10/19 03:57:24;;;;;;;8.10;6.03;;;;;;;12.70;53.60;96139.53;5003334;28;20062;-71
2021/10/19 03:59:50;;;;;;;11.82;6.85;;;;;;;12.66;53.66;96133.97;4988920;28;20057;-71
2021/10/19 04:02:15;;;;;;;6.28;5.68;;;;;;;12.64;53.28;96135.34;4989875;28;20037;-73
2021/10/19 04:04:40;;;;;;;5.90;5.40;;;;;;;12.65;53.17;96134.28;5019077;28;20485;-70
2021/10/19 04:07:06;;;;;;;6.20;5.68;;;;;;;12.48;53.86;96130.25;5028686;28;20041;-71
2021/10/19 04:09:31;;;;;;;7.13;5.35;;;;;;;12.54;54.02;96136.31;5027597;28;20548;-71
2021/10/19 04:11:57;;;;;;;8.13;6.40;;;;;;;12.58;53.57;96139.19;5011295;28;20030;-71
2021/10/19 04:14:22;;;;;;;7.43;6.65;;;;;;;12.46;53.99;96140.44;4991060;28;20027;-72
2021/10/19 04:16:47;;;;;;;6.95;6.32;;;;;;;12.43;53.78;96146.34;4989705;28;20125;-74
2021/10/19 04:19:13;;;;;;;5.75;5.18;;;;;;;12.32;54.28;96130.78;4988970;28;20654;-71
2021/10/19 04:21:41;;;;;;;7.07;6.38;;;;;;;12.59;54.07;96154.94;4995641;28;20046;-70
2021/10/19 04:24:07;;;;;;;5.80;5.30;;;;;;;12.56;53.92;96165.38;5007541;28;20553;-72
2021/10/19 04:26:33;;;;;;;5.07;4.60;;;;;;;12.39;53.81;96164.03;5010598;28;20030;-70
2021/10/19 04:28:58;;;;;;;5.60;5.07;;;;;;;12.04;54.97;96180.53;5008746;28;20125;-72
2021/10/19 04:31:24;;;;;;;5.72;4.78;;;;;;;12.47;54.94;96173.25;5007824;28;20045;-72
2021/10/19 04:33:49;;;;;;;5.25;4.75;;;;;;;12.62;54.14;96183.69;5008801;28;20040;-70
2021/10/19 04:36:15;;;;;;;5.50;4.95;;;;;;;12.69;53.67;96194.81;5008784;28;20030;-73
2021/10/19 04:38:40;;;;;;;6.20;5.40;;;;;;;12.63;53.72;96179.13;5009847;28;20380;-72
2021/10/19 04:41:06;;;;;;;7.47;6.72;;;;;;;12.67;53.15;96169.47;5007937;28;20125;-73
2021/10/19 04:43:31;;;;;;;7.40;6.75;;;;;;;12.68;53.18;96173.72;5008381;28;20030;-71
2021/10/19 04:45:56;;;;;;;5.85;5.35;;;;;;;12.67;52.93;96169.47;5008665;28;20145;-71
2021/10/19 04:48:22;;;;;;;6.68;6.07;;;;;;;12.71;53.09;96178.47;5008730;28;20034;-71
2021/10/19 04:50:48;;;;;;;6.15;5.55;;;;;;;12.69;53.11;96176.13;5007975;28;20434;-71
2021/10/19 04:53:14;;;;;;;7.80;7.00;;;;;;;12.67;52.96;96172.94;5010076;28;20025;-71
2021/10/19 04:55:40;;;;;;;7.78;6.60;;;;;;;12.73;53.02;96173.63;5008247;28;20084;-70
2021/10/19 04:58:05;;;;;;;6.68;6.00;;;;;;;12.67;52.72;96169.47;5008681;28;20629;-72
2021/10/19 05:00:31;;;;;;;6.55;5.43;;;;;;;12.68;52.83;96161.16;5006438;28;20160;-73
2021/10/19 05:02:57;;;;;;;8.05;7.15;;;;;;;12.61;52.80;96141.28;5007927;28;20029;-71
2021/10/19 05:05:23;;;;;;;9.10;7.03;;;;;;;12.66;52.67;96151.88;5025303;28;20018;-72
2021/10/19 05:07:49;;;;;;;9.77;7.75;;;;;;;12.66;52.93;96149.22;5008351;28;20042;-77
2021/10/19 05:10:15;;;;;;;8.43;7.05;;;;;;;12.68;53.16;96163.03;5007791;28;20044;-69
2021/10/19 05:12:41;;;;;;;8.00;5.95;;;;;;;12.66;53.28;96162.56;5007615;28;20042;-69
2021/10/19 05:15:07;;;;;;;7.93;6.90;;;;;;;12.71;52.98;96165.13;5008274;28;20044;-74
2021/10/19 05:17:33;;;;;;;6.70;6.00;;;;;;;12.77;53.36;96185.31;5011783;28;20101;-78
2021/10/19 05:19:58;;;;;;;7.45;6.75;;;;;;;12.69;53.07;96154.75;5009159;28;20045;-80
2021/10/19 05:22:24;;;;;;;10.77;6.60;;;;;;;12.79;52.97;96161.00;5010253;28;20120;-77
2021/10/19 05:24:50;;;;;;;9.60;5.95;;;;;;;12.89;52.66;96158.16;5008384;28;20077;-72
2021/10/19 05:27:15;;;;;;;5.70;5.20;;;;;;;12.94;52.69;96145.50;5008062;28;20037;-74
2021/10/19 05:29:41;;;;;;;8.75;5.78;;;;;;;13.04;52.54;96157.09;5010292;28;20022;-74
2021/10/19 05:32:11;;;;;;;9.23;6.00;;;;;;;13.08;52.79;96150.09;5007952;28;20121;-73
2021/10/19 05:34:36;;;;;;;8.43;5.82;;;;;;;13.16;52.66;96154.75;5007571;28;20038;-72
2021/10/19 05:37:02;;;;;;;8.48;5.50;;;;;;;13.26;52.61;96157.28;5008280;28;20038;-76
2021/10/19 05:39:28;;;;;;;5.15;4.47;;;;;;;13.41;52.54;96169.53;5007013;28;20042;-75
2021/10/19 05:41:53;;;;;;;6.03;4.03;;;;;;;13.51;52.26;96159.47;5008315;28;20037;-75
2021/10/19 05:44:21;;;;;;;5.00;4.60;;;;;;;13.61;52.08;96160.34;5008932;28;20151;-76
2021/10/19 05:46:47;;;;;;;4.95;4.00;;;;;;;13.81;51.69;96165.25;5008245;28;20113;-74
2021/10/19 05:49:13;;;;;;;5.40;4.07;;;;;;;13.75;51.29;96169.94;5007611;28;20042;-74
2021/10/19 05:51:38;;;;;;;5.18;4.10;;;;;;;13.95;51.15;96174.06;5007079;28;20040;-74
2021/10/19 05:54:03;;;;;;;5.30;4.82;;;;;;;14.09;51.23;96171.38;5007814;28;20061;-73
2021/10/19 05:56:29;;;;;;;5.18;4.30;;;;;;;14.10;51.35;96156.13;5009450;28;20034;-72
2021/10/19 05:58:54;;;;;;;5.57;3.65;;;;;;;14.23;51.06;96160.66;5023791;28;20058;-76
2021/10/19 06:01:20;;;;;;;4.22;3.80;;;;;;;14.25;50.64;96155.78;5009014;28;20104;-76
2021/10/19 06:03:46;;;;;;;4.45;3.88;;;;;;;14.41;50.23;96173.06;5008738;28;20124;-76
2021/10/19 06:06:15;;;;;;;3.88;3.58;;;;;;;14.45;50.25;96158.00;5009129;28;20400;-76
2021/10/19 06:08:40;;;;;;;4.13;3.83;;;;;;;14.55;49.88;96155.09;5010508;28;20022;-76
2021/10/19 06:11:06;;;;;;;3.35;3.05;;;;;;;14.68;49.73;96158.81;5008456;28;20046;-75
2021/10/19 06:13:32;;;;;;;4.93;3.38;;;;;;;14.73;49.53;96149.84;5007680;28;20038;-72
2021/10/19 06:15:58;;;;;;;3.63;3.30;;;;;;;14.82;49.13;96153.38;5007522;28;20528;-72
2021/10/19 06:18:25;;;;;;;4.05;3.60;;;;;;;14.83;49.20;96158.44;5008311;28;20038;-81
2021/10/19 06:20:51;;;;;;;3.63;3.33;;;;;;;14.97;49.30;96152.22;5009791;28;20076;-82
2021/10/19 06:23:18;;;;;;;3.78;3.45;;;;;;;15.08;49.19;96162.34;5011771;28;20026;-81
2021/10/19 06:29:08;;;;;;;6.55;3.75;;;;;;;15.26;48.79;96165.16;4992486;28;20092;-82
2021/10/19 06:31:34;;;;;;;4.28;3.70;;;;;;;15.31;48.60;96163.13;5007055;28;20040;-73
2021/10/19 06:34:00;;;;;;;4.82;3.20;;;;;;;15.33;48.89;96155.53;5011126;28;20495;-74
2021/10/19 06:36:27;;;;;;;3.15;2.88;;;;;;;15.43;48.31;96165.22;5011171;28;20403;-75
2021/10/19 06:38:53;;;;;;;4.15;3.72;;;;;;;15.47;48.35;96144.72;5008156;28;20032;-69
2021/10/19 06:41:19;;;;;;;7.57;4.10;;;;;;;15.69;48.65;96159.19;5011410;28;20030;-70
2021/10/19 06:43:44;;;;;;;4.68;3.17;;;;;;;15.63;48.10;96141.63;5007760;28;20096;-68
2021/10/19 06:46:10;;;;;;;10.20;3.83;;;;;;;15.59;47.94;96118.09;5008516;28;20042;-71
2021/10/19 06:48:35;;;;;;;3.53;2.90;;;;;;;16.03;47.33;96153.91;5006634;28;20540;-69
2021/10/19 06:51:02;;;;;;;4.68;3.47;;;;;;;16.02;47.42;96144.28;5008989;28;20026;-74
2021/10/19 06:53:28;;;;;;;4.32;3.17;;;;;;;15.96;47.26;96113.28;5011971;28;20030;-75
2021/10/19 06:55:55;;;;;;;9.93;4.32;;;;;;;16.25;47.63;96160.22;5010405;28;20144;-72
2021/10/19 06:58:21;;;;;;;5.63;3.25;;;;;;;16.36;47.46;96161.50;5010454;28;20038;-75
2021/10/19 07:00:47;;;;;;;4.30;3.45;;;;;;;16.40;46.81;96169.72;5010374;28;20034;-74
2021/10/19 07:03:13;;;;;;;4.30;2.70;;;;;;;16.46;46.97;96171.13;5010031;28;20030;-75
2021/10/19 07:05:38;;;;;;;4.75;2.92;;;;;;;16.71;47.07;96181.09;5010634;28;20091;-72
2021/10/19 07:08:05;;;;;;;6.28;3.45;;;;;;;16.84;46.70;96182.84;5006939;28;20046;-73
2021/10/19 07:10:32;;;;;;;6.38;2.92;;;;;;;16.91;46.42;96173.50;5001503;28;20046;-72
2021/10/19 07:12:57;;;;;;;3.88;2.92;;;;;;;17.00;45.89;96183.13;5010024;28;20038;-74
2021/10/19 07:15:22;;;;;;;6.00;2.97;;;;;;;17.16;45.85;96186.09;5010321;28;20030;-73
2021/10/19 07:17:48;;;;;;;5.20;2.63;;;;;;;17.43;45.13;96184.91;5010263;28;20033;-73
2021/10/19 07:20:13;;;;;;;2.92;2.63;;;;;;;17.71;44.73;96181.78;5012565;28;20121;-82
2021/10/19 07:22:40;;;;;;;4.50;3.05;;;;;;;17.81;43.57;96184.13;5012374;28;20407;-80
2021/10/19 07:25:07;;;;;;;3.17;2.30;;;;;;;17.95;43.92;96162.38;5012212;28;20069;-81
2021/10/19 07:27:33;;;;;;;2.45;2.25;;;;;;;18.16;43.88;96165.88;5011681;28;20046;-78
2021/10/19 07:29:58;;;;;;;4.97;2.45;;;;;;;18.37;43.36;96179.34;5011442;28;20075;-80
2021/10/19 07:32:25;;;;;;;5.32;3.13;;;;;;;18.50;42.85;96172.94;5013894;28;20044;-79
2021/10/19 07:34:51;;;;;;;3.05;2.50;;;;;;;18.77;42.96;96189.69;5010309;28;20030;-72
2021/10/19 07:37:17;;;;;;;3.20;2.53;;;;;;;18.68;41.85;96181.69;4995642;28;20121;-71
2021/10/19 07:39:43;;;;;;;2.60;2.40;;;;;;;18.80;42.39;96178.25;4989444;28;20134;-71
2021/10/19 07:42:09;;;;;;;2.38;2.17;;;;;;;19.02;42.38;96188.66;4989463;28;20050;-73
2021/10/19 07:44:34;;;;;;;4.32;2.83;;;;;;;19.12;42.15;96173.97;4991563;28;20026;-74
2021/10/19 07:47:00;;;;;;;7.07;2.83;;;;;;;19.29;42.34;96179.19;4989920;28;20042;-71
2021/10/19 07:49:25;;;;;;;2.55;2.35;;;;;;;19.49;42.09;96177.53;4989480;28;20052;-71
2021/10/19 07:51:51;;;;;;;3.13;2.83;;;;;;;19.62;42.03;96165.66;4999263;28;20150;-71
2021/10/19 07:54:16;;;;;;;5.65;2.60;;;;;;;19.65;41.46;96156.88;5004458;28;20429;-71
2021/10/19 07:56:42;;;;;;;7.78;2.55;;;;;;;19.80;41.04;96168.91;4994225;28;20022;-72
2021/10/19 07:59:08;;;;;;;4.15;2.50;;;;;;;19.93;41.06;96169.72;4988955;28;20168;-72
2021/10/19 08:01:34;;;;;;;3.72;2.42;;;;;;;20.14;41.09;96186.56;5011426;28;20033;-72
2021/10/19 08:04:00;;;;;;;2.72;2.28;;;;;;;20.21;40.22;96200.28;5028759;28;20099;-73
2021/10/19 08:06:26;;;;;;;6.00;2.42;;;;;;;20.24;40.40;96186.09;5045444;28;20033;-70
2021/10/19 08:08:52;;;;;;;2.53;2.30;;;;;;;20.46;40.23;96202.94;5028683;28;20100;-77
2021/10/19 08:11:17;;;;;;;2.50;2.28;;;;;;;20.60;39.84;96195.28;5029097;28;20676;-69
2021/10/19 08:13:43;;;;;;;3.67;2.55;;;;;;;20.90;39.76;96208.50;5008458;28;20033;-73
2021/10/19 08:16:08;;;;;;;5.13;2.17;;;;;;;21.00;39.10;96202.59;5011005;28;20604;-75
2021/10/19 08:18:34;;;;;;;4.32;2.45;;;;;;;21.15;39.12;96215.38;5001294;28;20048;-72
2021/10/19 08:21:00;;;;;;;4.20;2.35;;;;;;;21.13;39.37;96209.50;4990824;28;20392;-73
2021/10/19 08:23:27;;;;;;;3.50;1.98;;;;;;;21.11;38.93;96214.50;5011137;28;20076;-76
2021/10/19 08:25:53;;;;;;;4.97;2.15;;;;;;;21.04;38.86;96211.59;5008647;28;20026;-77
2021/10/19 08:28:23;;;;;;;2.13;1.92;;;;;;;20.99;39.20;96201.81;5007629;28;20726;-72
2021/10/19 08:30:49;;;;;;;2.38;2.00;;;;;;;21.02;39.35;96211.13;5009262;28;20131;-75
2021/10/19 08:33:14;;;;;;;7.70;2.55;;;;;;;20.98;39.40;96204.84;5009409;28;20041;-76
2021/10/19 08:35:40;;;;;;;8.77;2.53;;;;;;;21.09;39.40;96210.53;5011813;28;20387;-80
2021/10/19 08:38:05;;;;;;;5.53;2.60;;;;;;;21.24;39.41;96218.72;5009974;28;20038;-73
2021/10/19 08:40:31;;;;;;;3.45;1.90;;;;;;;21.32;39.06;96221.63;5008757;28;20487;-76
2021/10/19 08:42:57;;;;;;;5.13;2.13;;;;;;;21.36;38.72;96219.81;5008370;28;20038;-76
2021/10/19 08:45:23;;;;;;;3.70;1.98;;;;;;;21.40;39.04;96215.28;5008518;28;20034;-73
2021/10/19 08:47:50;;;;;;;6.45;2.08;;;;;;;21.35;39.04;96193.88;5008618;28;20101;-73
2021/10/19 08:50:20;;;;;;;2.28;2.03;;;;;;;21.44;39.15;96218.84;5009360;28;20468;-73
2021/10/19 08:52:46;;;;;;;8.65;2.42;;;;;;;21.50;39.04;96228.31;5023596;28;20430;-75
2021/10/19 08:55:12;;;;;;;5.57;2.22;;;;;;;21.52;38.86;96218.69;5028347;28;20574;-72
2021/10/19 08:57:38;;;;;;;4.30;2.05;;;;;;;21.56;38.67;96224.22;5004088;28;20743;-72
2021/10/19 09:00:05;;;;;;;3.65;2.38;;;;;;;21.63;38.42;96218.97;4988168;28;20035;-72
2021/10/19 09:02:49;;;;;;;2.75;2.35;;;;;;;21.72;38.45;96224.22;4997795;28;20030;-72
2021/10/19 09:05:21;;;;;;;3.45;2.50;;;;;;;21.76;38.36;96231.28;4989977;28;20034;-71
2021/10/19 09:08:00;;;;;;;3.20;2.50;;;;;;;21.79;38.32;96225.16;5004076;28;20050;-71
2021/10/19 09:10:34;;;;;;;6.00;2.92;;;;;;;21.86;38.17;96219.16;5007804;28;20069;-71
2021/10/19 09:13:06;;;;;;;5.10;3.17;;;;;;;22.01;38.50;96225.69;5006338;28;20495;-71
2021/10/19 09:15:39;;;;;;;3.40;3.00;;;;;;;22.15;38.10;96223.34;5003845;28;20046;-71
2021/10/19 09:18:10;;;;;;;7.05;2.95;;;;;;;22.48;37.96;96217.50;5005050;28;20369;-71
2021/10/19 09:20:40;;;;;;;3.85;2.60;;;;;;;22.72;37.21;96232.72;5009479;28;20032;-71
2021/10/19 09:23:07;;;;;;;6.72;2.78;;;;;;;22.70;37.11;96226.09;5006556;28;20042;-70
2021/10/19 09:25:44;;;;;;;3.00;2.80;;;;;;;22.77;37.07;96223.53;5008333;28;20030;-70
2021/10/19 09:28:12;;;;;;;4.13;2.78;;;;;;;22.83;36.96;96232.97;5007089;28;20125;-70
2021/10/19 09:30:41;;;;;;;3.00;2.70;;;;;;;22.92;36.77;96232.78;5008822;28;20033;-70
2021/10/19 09:33:11;;;;;;;5.85;2.78;;;;;;;22.91;37.27;96223.06;5019433;28;20420;-70
2021/10/19 09:35:37;;;;;;;3.03;2.25;;;;;;;22.96;36.89;96230.94;4990078;28;20034;-70
2021/10/19 09:38:05;;;;;;;3.08;2.30;;;;;;;23.07;36.60;96229.97;4988690;28;20550;-82
2021/10/19 09:40:46;;;;;;;3.60;2.10;;;;;;;23.16;35.82;96229.78;5004002;28;20121;-80
2021/10/19 09:43:17;;;;;;;5.75;2.60;;;;;;;23.17;35.88;96214.28;4997952;28;20085;-82
2021/10/19 09:45:45;;;;;;;2.15;1.95;;;;;;;23.23;35.56;96221.75;4989524;28;20069;-75
2021/10/19 09:48:16;;;;;;;2.22;1.83;;;;;;;23.14;35.39;96218.50;4988787;28;20034;-75
2021/10/19 09:50:44;;;;;;;2.50;2.10;;;;;;;23.23;35.13;96237.25;4990708;28;20041;-81
2021/10/19 09:53:11;;;;;;;2.67;2.10;;;;;;;23.22;35.58;96225.63;5008643;28;20037;-69
2021/10/19 09:55:37;;;;;;;3.20;1.98;;;;;;;23.31;35.82;96228.91;4994617;28;20030;-74
2021/10/19 09:58:03;;;;;;;3.10;2.00;;;;;;;23.40;35.71;96231.41;4997907;28;20532;-71
2021/10/19 10:00:32;;;;;;;3.60;1.98;;;;;;;23.46;35.57;96243.53;4999834;28;20040;-75
2021/10/19 10:03:03;;;;;;;2.80;1.83;;;;;;;23.55;36.05;96244.09;5026640;28;20111;-74
2021/10/19 10:05:29;;;;;;;4.57;1.80;;;;;;;23.58;36.43;96234.41;5036902;28;20049;-81
2021/10/19 10:07:55;;;;;;;2.42;2.05;;;;;;;23.45;36.61;96225.66;5033452;28;20034;-74
2021/10/19 10:10:22;;;;;;;5.13;1.95;;;;;;;23.37;36.41;96232.09;5031172;28;20045;-75
2021/10/19 10:12:58;;;;;;;3.08;2.28;;;;;;;23.36;36.86;96219.69;5013236;28;20125;-72
2021/10/19 10:15:26;;;;;;;2.20;2.00;;;;;;;23.34;36.96;96211.91;4997661;28;20153;-73
2021/10/19 10:17:56;;;;;;;3.75;2.20;;;;;;;23.23;35.74;96235.31;5010156;28;20125;-83
2021/10/19 10:20:37;;;;;;;2.75;2.55;;;;;;;23.31;36.92;96231.63;5047863;28;20108;-72
2021/10/19 10:23:18;;;;;;;2.80;2.38;;;;;;;23.32;37.30;96224.25;5045714;28;20438;-73
2021/10/19 10:25:46;;;;;;;2.60;2.40;;;;;;;23.41;37.70;96213.97;5030901;28;20037;-72
2021/10/19 10:28:28;;;;;;;2.38;2.03;;;;;;;23.48;37.34;96216.00;4998915;28;20065;-72
2021/10/19 10:30:55;;;;;;;2.15;1.90;;;;;;;23.51;37.68;96237.03;5005899;28;20125;-72
2021/10/19 10:33:41;;;;;;;3.25;2.20;;;;;;;23.81;36.95;96223.59;4995797;28;20037;-72
2021/10/19 10:36:11;;;;;;;2.45;2.25;;;;;;;24.23;36.94;96228.16;5007971;28;20396;-72
2021/10/19 10:38:51;;;;;;;3.85;2.70;;;;;;;24.48;36.35;96228.53;4992793;28;20018;-72
2021/10/19 10:41:16;;;;;;;5.25;2.80;;;;;;;24.63;36.38;96222.16;4991189;28;20065;-73
2021/10/19 10:43:43;;;;;;;3.05;2.40;;;;;;;24.78;35.51;96218.47;4991026;28;20451;-73
2021/10/19 10:46:20;;;;;;;2.90;2.60;;;;;;;24.90;35.41;96207.31;4991464;28;20030;-73
2021/10/19 10:48:47;;;;;;;2.83;2.63;;;;;;;25.06;34.97;96209.88;4990732;28;20133;-72
2021/10/19 10:51:24;;;;;;;2.72;2.53;;;;;;;25.04;34.76;96212.16;4991136;28;20058;-73
2021/10/19 10:53:49;;;;;;;2.67;2.17;;;;;;;25.35;34.37;96215.66;4991554;28;20051;-72
2021/10/19 10:56:16;;;;;;;4.30;2.25;;;;;;;25.44;34.12;96202.50;5012332;28;20029;-73
2021/10/19 10:58:43;;;;;;;2.70;2.10;;;;;;;25.59;33.94;96190.59;5009576;28;20037;-71
2021/10/19 11:01:31;;;;;;;2.28;2.05;;;;;;;25.58;33.70;96194.44;5010360;28;20137;-71
2021/10/19 11:04:07;;;;;;;3.33;2.58;;;;;;;25.54;33.99;96203.75;5010112;28;20097;-72
2021/10/19 11:06:34;;;;;;;2.47;2.28;;;;;;;25.61;33.70;96199.16;5011081;28;20057;-73
2021/10/19 11:09:03;;;;;;;2.85;2.15;;;;;;;25.49;34.27;96188.56;5010299;28;20014;-74
2021/10/19 11:11:35;;;;;;;2.38;2.13;;;;;;;25.42;34.35;96199.34;5012511;28;20026;-75
2021/10/19 11:14:08;;;;;;;3.83;2.03;;;;;;;25.24;33.30;96188.31;4995661;28;20033;-74
2021/10/19 11:16:38;;;;;;;2.28;1.70;;;;;;;25.25;33.67;96198.03;5013323;28;20034;-74
2021/10/19 11:19:16;;;;;;;2.80;2.15;;;;;;;25.31;33.97;96196.53;5021288;28;20109;-74
2021/10/19 11:21:42;;;;;;;3.67;2.13;;;;;;;25.30;34.57;96186.03;5030305;28;20038;-75
2021/10/19 11:24:08;;;;;;;2.30;2.10;;;;;;;25.54;34.16;96184.69;5030090;28;20049;-74
2021/10/19 11:26:34;;;;;;;2.85;1.98;;;;;;;25.53;34.07;96189.34;5031170;28;20029;-75
2021/10/19 11:29:00;;;;;;;1.80;1.70;;;;;;;25.77;33.08;96195.44;4991555;28;20046;-74
2021/10/19 11:31:28;;;;;;;3.45;1.70;;;;;;;25.79;32.61;96193.88;5004373;28;20112;-76
2021/10/19 11:33:56;;;;;;;2.05;1.95;;;;;;;25.82;33.01;96195.09;5009409;28;20041;-72